Time;durP1;ratioP1;P1;durP2;ratioP2;P2;SDS_P1;SDS_P2;PMS_P1;PMS_P2;Temp;Humidity;BMP_temperature;BMP_pressure;BME280_temperature;BME280_humidity;BME280_pressure;Samples;Min_cycle;Max_cycle;Signal;HPM_P1;HPM_P2
2022/01/10 01:27:49;;;;;;;21.48;13.35;;;;;;;10.14;63.06;100664.73;1687244;83;21555;-54
2022/01/10 01:30:15;;;;;;;17.15;12.90;;;;;;;10.09;63.12;100664.80;1685000;83;21022;-54
2022/01/10 01:32:43;;;;;;;14.30;11.75;;;;;;;10.03;63.32;100664.06;1685784;83;21617;-54
2022/01/10 01:35:10;;;;;;;19.50;13.75;;;;;;;10.01;63.49;100664.11;1681810;83;21074;-54
2022/01/10 01:37:38;;;;;;;19.52;13.48;;;;;;;10.01;63.60;100667.14;1702966;83;21498;-54
2022/01/10 01:40:08;;;;;;;19.20;14.78;;;;;;;10.01;63.65;100671.05;1692795;83;21000;-54
2022/01/10 01:42:39;;;;;;;22.60;15.45;;;;;;;10.02;63.56;100671.44;1688808;83;21042;-54
2022/01/10 01:45:07;;;;;;;19.02;14.43;;;;;;;10.00;63.67;100669.31;1662494;84;21054;-54
2022/01/10 01:47:33;;;;;;;20.72;15.50;;;;;;;10.00;63.58;100675.81;1699197;83;20976;-54
2022/01/10 01:50:00;;;;;;;27.62;14.87;;;;;;;9.95;63.41;100671.17;1704521;83;21039;-54
2022/01/10 01:52:27;;;;;;;22.13;15.90;;;;;;;9.87;63.49;100676.97;1698673;83;21487;-54
2022/01/10 01:54:54;;;;;;;24.10;17.80;;;;;;;9.77;63.48;100679.73;1699509;82;21527;-57
2022/01/10 01:57:20;;;;;;;25.50;17.32;;;;;;;9.68;63.55;100681.23;1690767;83;21526;-54
2022/01/10 01:59:47;;;;;;;23.60;16.62;;;;;;;9.64;63.91;100680.84;1692991;83;21522;-54
2022/01/10 02:02:13;;;;;;;19.37;14.38;;;;;;;9.65;64.15;100679.98;1685771;83;20983;-54
2022/01/10 02:04:40;;;;;;;20.23;15.88;;;;;;;9.71;64.13;100681.16;1702522;83;20980;-54
2022/01/10 02:07:07;;;;;;;19.95;15.48;;;;;;;9.71;64.05;100673.36;1682384;83;21121;-54
2022/01/10 02:09:35;;;;;;;23.92;15.28;;;;;;;9.72;64.00;100675.09;1685115;83;21105;-54
2022/01/10 02:12:03;;;;;;;20.05;15.35;;;;;;;9.70;63.95;100672.10;1689917;83;21597;-54
2022/01/10 02:14:30;;;;;;;20.60;15.48;;;;;;;9.67;63.98;100673.01;1701298;83;22264;-54
2022/01/10 02:16:57;;;;;;;20.30;15.08;;;;;;;9.65;63.93;100679.11;1688125;83;21544;-54
2022/01/10 02:19:28;;;;;;;22.32;14.70;;;;;;;9.62;64.24;100678.72;1667656;85;21066;-54
2022/01/10 02:21:55;;;;;;;21.90;16.27;;;;;;;9.62;64.14;100683.92;1673837;84;21084;-54
2022/01/10 02:24:23;;;;;;;19.50;14.90;;;;;;;9.62;64.36;100682.62;1669309;83;21128;-55
2022/01/10 02:26:50;;;;;;;23.22;16.05;;;;;;;9.69;64.46;100688.13;1684561;83;21065;-54
2022/01/10 02:29:17;;;;;;;24.80;16.82;;;;;;;9.75;64.31;100688.00;1675777;83;21013;-54
2022/01/10 02:31:46;;;;;;;24.23;16.35;;;;;;;9.79;64.05;100690.95;1673872;84;21041;-54
2022/01/10 02:36:41;;;;;;;24.80;15.48;;;;;;;9.73;63.32;100692.38;1643531;86;21030;-54
2022/01/10 02:39:09;;;;;;;22.17;14.90;;;;;;;9.63;63.33;100689.98;1644115;86;21545;-54
2022/01/10 02:41:41;;;;;;;26.10;15.25;;;;;;;9.57;63.66;100697.45;1606568;87;21051;-55
2022/01/10 02:44:11;;;;;;;23.35;15.70;;;;;;;9.55;63.85;100691.43;1576549;89;21053;-54
2022/01/10 02:46:38;;;;;;;21.42;16.10;;;;;;;9.58;63.94;100697.85;1640401;85;21995;-54
2022/01/10 02:49:10;;;;;;;26.10;17.42;;;;;;;9.61;63.86;100699.11;1625162;86;21042;-55
2022/01/10 02:51:37;;;;;;;24.18;16.82;;;;;;;9.63;63.85;100699.94;1633536;87;21049;-54
2022/01/10 02:54:04;;;;;;;26.30;17.48;;;;;;;9.64;63.85;100702.92;1612231;87;21077;-54
2022/01/10 02:56:30;;;;;;;24.85;15.38;;;;;;;9.65;63.81;100708.55;1615676;87;21076;-54
2022/01/10 02:58:57;;;;;;;25.80;17.15;;;;;;;9.65;63.76;100717.65;1575961;90;21125;-54
2022/01/10 03:01:24;;;;;;;23.38;15.65;;;;;;;9.64;63.94;100714.62;1578613;90;21088;-54
2022/01/10 03:03:52;;;;;;;26.93;16.42;;;;;;;9.67;63.86;100713.28;1581172;90;21634;-54
2022/01/10 03:06:18;;;;;;;25.88;16.40;;;;;;;9.67;63.73;100718.48;1578423;89;21601;-53
2022/01/10 03:08:45;;;;;;;22.85;16.02;;;;;;;9.64;63.70;100718.52;1577248;89;21854;-54
2022/01/10 03:11:12;;;;;;;28.92;18.12;;;;;;;9.61;63.73;100718.59;1597685;88;21079;-53
2022/01/10 03:13:38;;;;;;;26.52;18.02;;;;;;;9.58;63.61;100723.83;1619452;87;21137;-53
2022/01/10 03:16:05;;;;;;;24.63;18.12;;;;;;;9.51;63.73;100730.03;1601115;87;21118;-53
2022/01/10 03:18:31;;;;;;;30.85;17.85;;;;;;;9.46;63.98;100729.25;1561374;89;21599;-54
2022/01/10 03:20:58;;;;;;;28.92;18.60;;;;;;;9.43;64.12;100732.34;1572864;90;21643;-54
2022/01/10 03:23:25;;;;;;;27.62;18.05;;;;;;;9.41;64.20;100728.48;1588374;88;21673;-54
2022/01/10 03:25:52;;;;;;;27.40;18.50;;;;;;;9.40;64.22;100733.69;1577028;90;21549;-54
2022/01/10 03:28:18;;;;;;;28.62;18.60;;;;;;;9.39;64.35;100731.55;1576942;89;21162;-54
2022/01/10 03:30:45;;;;;;;27.30;18.50;;;;;;;9.39;64.30;100734.58;1578405;89;21081;-53
2022/01/10 03:33:14;;;;;;;30.50;18.73;;;;;;;9.40;64.49;100730.66;1599643;86;21548;-54
2022/01/10 03:35:41;;;;;;;29.32;19.40;;;;;;;9.44;64.45;100737.50;1623920;87;21110;-54
2022/01/10 03:38:09;;;;;;;64.05;33.10;;;;;;;9.44;64.21;100737.94;1606078;87;21104;-54
2022/01/10 03:40:36;;;;;;;35.65;21.65;;;;;;;9.40;64.34;100746.67;1635741;86;21026;-53
2022/01/10 03:43:04;;;;;;;35.03;19.87;;;;;;;9.37;64.38;100738.52;1644018;85;21550;-54
2022/01/10 03:45:32;;;;;;;30.10;19.67;;;;;;;9.36;64.47;100743.27;1634635;86;21018;-53
2022/01/10 03:47:59;;;;;;;27.67;18.67;;;;;;;9.37;64.59;100738.95;1644576;85;21378;-53
2022/01/10 03:50:26;;;;;;;30.50;19.70;;;;;;;9.40;64.65;100742.34;1669168;85;23137;-53
2022/01/10 03:52:52;;;;;;;30.97;20.48;;;;;;;9.46;64.69;100743.53;1672642;84;21002;-54
2022/01/10 03:55:19;;;;;;;30.55;19.85;;;;;;;9.51;64.47;100745.63;1688990;83;21010;-54
2022/01/10 03:57:45;;;;;;;30.35;19.57;;;;;;;9.47;64.08;100747.86;1676821;83;21023;-53
2022/01/10 04:00:13;;;;;;;30.68;18.60;;;;;;;9.40;64.17;100755.33;1702018;83;21003;-54
2022/01/10 04:02:52;;;;;;;24.60;17.60;;;;;;;9.39;64.34;100761.42;1679876;83;21055;-53
2022/01/10 04:05:14;;;;;;;27.50;18.30;;;;;;;9.39;64.32;100765.31;1681319;84;21053;-54
2022/01/10 04:07:42;;;;;;;26.15;17.98;;;;;;;9.38;64.13;100763.58;1668733;85;21019;-54
2022/01/10 04:10:09;;;;;;;29.35;17.82;;;;;;;9.36;63.97;100767.08;1671832;84;21058;-53
2022/01/10 04:12:36;;;;;;;26.25;17.52;;;;;;;9.31;63.91;100768.48;1671801;85;21082;-53
2022/01/10 04:15:04;;;;;;;26.70;18.48;;;;;;;9.27;63.94;100770.71;1667831;85;21511;-53
2022/01/10 04:17:32;;;;;;;27.90;17.52;;;;;;;9.20;63.94;100775.57;1661370;84;21095;-53
2022/01/10 04:19:58;;;;;;;24.98;16.55;;;;;;;9.15;64.11;100782.56;1628899;85;21650;-53
2022/01/10 04:22:25;;;;;;;28.38;16.95;;;;;;;9.08;64.22;100783.55;1636579;86;21580;-53
2022/01/10 04:24:52;;;;;;;27.75;18.55;;;;;;;9.02;64.42;100783.64;1639851;86;21121;-53
2022/01/10 04:27:19;;;;;;;31.50;18.25;;;;;;;9.01;64.57;100791.00;1640751;86;21090;-54
2022/01/10 04:29:46;;;;;;;24.55;16.12;;;;;;;9.01;64.80;100791.00;1678177;84;21144;-53
2022/01/10 04:32:12;;;;;;;23.57;16.55;;;;;;;9.05;64.86;100794.43;1702662;83;21020;-53
2022/01/10 04:34:40;;;;;;;23.42;16.45;;;;;;;9.08;64.82;100797.83;1686305;83;21533;-53
2022/01/10 04:37:07;;;;;;;26.12;17.67;;;;;;;9.11;64.84;100802.13;1699148;83;21006;-53
2022/01/10 04:39:35;;;;;;;24.40;16.23;;;;;;;9.15;64.55;100803.33;1700217;83;21511;-53
2022/01/10 04:42:02;;;;;;;23.52;15.88;;;;;;;9.12;64.50;100809.87;1698864;83;21574;-53
2022/01/10 04:44:28;;;;;;;23.87;16.48;;;;;;;9.09;64.46;100813.80;1704472;83;21014;-53
2022/01/10 04:46:56;;;;;;;24.18;16.37;;;;;;;9.05;64.42;100814.73;1696503;83;21081;-53
2022/01/10 04:49:26;;;;;;;24.60;16.45;;;;;;;9.02;64.53;100816.09;1687393;83;21094;-53
2022/01/10 04:51:51;;;;;;;27.55;17.73;;;;;;;9.01;64.61;100821.71;1692516;83;21110;-53
2022/01/10 04:54:17;;;;;;;28.87;18.12;;;;;;;8.99;64.66;100822.61;1680474;83;21030;-53
2022/01/10 04:56:44;;;;;;;25.50;17.27;;;;;;;8.99;64.78;100827.80;1701812;83;21090;-53
2022/01/10 04:59:11;;;;;;;27.73;17.15;;;;;;;9.01;64.95;100832.53;1685010;83;20975;-54
2022/01/10 05:01:39;;;;;;;23.73;15.60;;;;;;;9.05;64.93;100832.90;1698739;83;21034;-53
2022/01/10 05:04:06;;;;;;;25.17;16.12;;;;;;;9.06;64.88;100833.34;1683561;83;21032;-53
2022/01/10 05:06:33;;;;;;;27.07;15.98;;;;;;;9.10;64.93;100838.90;1678683;83;21046;-53
2022/01/10 05:09:00;;;;;;;24.82;16.82;;;;;;;9.14;64.85;100834.08;1687679;83;21063;-53
2022/01/10 05:11:32;;;;;;;22.67;15.63;;;;;;;9.15;64.85;100838.38;1680702;83;21038;-53
2022/01/10 05:13:59;;;;;;;22.58;15.40;;;;;;;9.19;64.96;100840.05;1701042;83;21522;-53
2022/01/10 05:16:26;;;;;;;21.07;14.70;;;;;;;9.24;64.80;100844.74;1696180;83;21515;-53
2022/01/10 05:18:53;;;;;;;22.98;15.23;;;;;;;9.26;64.61;100847.31;1677057;83;21007;-53
2022/01/10 05:21:20;;;;;;;21.15;14.47;;;;;;;9.27;64.56;100849.91;1701762;83;21010;-53
2022/01/10 05:23:47;;;;;;;19.48;13.98;;;;;;;9.30;64.38;100847.67;1693591;83;21017;-53
2022/01/10 05:26:13;;;;;;;20.62;13.75;;;;;;;9.30;64.23;100858.93;1684035;83;21016;-53
2022/01/10 05:28:40;;;;;;;17.50;12.45;;;;;;;9.30;64.14;100858.06;1681918;83;21074;-53
2022/01/10 05:31:07;;;;;;;17.20;12.82;;;;;;;9.31;64.06;100861.09;1699720;83;21111;-54
2022/01/10 05:33:35;;;;;;;16.77;12.15;;;;;;;9.32;63.87;100868.85;1700452;82;21066;-53
2022/01/10 05:36:02;;;;;;;18.27;12.15;;;;;;;9.33;63.85;100870.59;1703206;83;21014;-54
2022/01/10 05:38:29;;;;;;;16.57;11.40;;;;;;;9.35;63.84;100867.52;1702816;83;21073;-55
2022/01/10 05:40:55;;;;;;;18.77;12.15;;;;;;;9.39;63.60;100875.69;1700158;83;21026;-53
2022/01/10 05:43:22;;;;;;;14.30;11.15;;;;;;;9.40;63.37;100882.58;1687102;83;21486;-54
2022/01/10 05:45:48;;;;;;;15.10;11.28;;;;;;;9.40;63.31;100881.71;1695321;83;21031;-53
2022/01/10 05:48:22;;;;;;;16.45;12.28;;;;;;;9.40;63.29;100890.37;1685897;83;21026;-53
2022/01/10 05:50:44;;;;;;;15.38;11.60;;;;;;;9.40;63.04;100889.07;1690960;83;21034;-53
2022/01/10 05:53:11;;;;;;;15.98;11.45;;;;;;;9.36;62.75;100890.00;1674288;83;21026;-53
2022/01/10 05:55:38;;;;;;;14.90;11.53;;;;;;;9.27;62.67;100894.05;1694164;83;21002;-53
2022/01/10 05:58:06;;;;;;;16.35;12.23;;;;;;;9.14;62.45;100902.88;1683537;83;21078;-53
2022/01/10 06:00:34;;;;;;;17.23;12.50;;;;;;;8.99;62.70;100904.36;1693643;83;21031;-53
2022/01/10 06:03:01;;;;;;;13.48;10.35;;;;;;;8.89;63.03;100914.44;1706227;83;20982;-53
2022/01/10 06:05:31;;;;;;;14.98;11.57;;;;;;;8.83;63.31;100913.22;1701555;83;21137;-53
2022/01/10 06:08:03;;;;;;;12.63;10.28;;;;;;;8.78;63.46;100913.27;1696975;83;22433;-53
2022/01/10 06:10:31;;;;;;;14.55;10.50;;;;;;;8.74;63.62;100924.99;1714546;83;21026;-53
2022/01/10 06:12:59;;;;;;;14.18;10.45;;;;;;;8.72;63.69;100926.75;1677095;83;21574;-53
2022/01/10 06:15:28;;;;;;;12.93;10.72;;;;;;;8.70;63.88;100928.50;1695997;83;21034;-52
2022/01/10 06:17:55;;;;;;;11.40;10.10;;;;;;;8.70;63.99;100928.50;1694952;83;21010;-53
2022/01/10 06:20:21;;;;;;;13.55;10.43;;;;;;;8.71;64.05;100931.09;1689040;83;21109;-54
2022/01/10 06:22:49;;;;;;;12.10;10.20;;;;;;;8.74;64.01;100928.88;1685225;83;20983;-53
2022/01/10 06:25:19;;;;;;;11.88;9.73;;;;;;;8.73;64.11;100936.27;1697318;84;21066;-53
2022/01/10 06:27:46;;;;;;;13.03;11.15;;;;;;;8.72;64.10;100940.58;1692058;83;21007;-53
2022/01/10 06:30:13;;;;;;;13.30;10.88;;;;;;;8.71;64.09;100944.07;1698237;83;21043;-53
2022/01/10 06:32:42;;;;;;;12.82;10.53;;;;;;;8.71;64.11;100944.50;1696146;83;21100;-54
2022/01/10 06:35:11;;;;;;;13.72;11.15;;;;;;;8.69;64.14;100939.77;1688623;83;21459;-55
2022/01/10 06:37:38;;;;;;;13.53;10.72;;;;;;;8.67;64.08;100941.52;1693506;83;21080;-54
2022/01/10 06:40:06;;;;;;;13.00;10.65;;;;;;;8.65;64.12;100943.27;1688910;84;21030;-53
2022/01/10 06:42:34;;;;;;;14.13;11.50;;;;;;;8.61;64.09;100937.70;1706025;84;20994;-54
2022/01/10 06:45:01;;;;;;;13.98;11.85;;;;;;;8.55;64.16;100939.06;1697136;83;21047;-54
2022/01/10 06:47:27;;;;;;;13.55;10.60;;;;;;;8.49;64.12;100944.31;1704912;83;21017;-53
2022/01/10 06:49:55;;;;;;;13.45;10.88;;;;;;;8.44;64.22;100939.59;1696756;83;21110;-54
2022/01/10 06:52:22;;;;;;;15.38;11.45;;;;;;;8.40;64.37;100945.69;1695772;83;20959;-54
2022/01/10 06:54:50;;;;;;;13.88;10.55;;;;;;;8.36;64.48;100953.08;1685433;85;21014;-54
2022/01/10 06:57:17;;;;;;;13.95;11.30;;;;;;;8.31;64.50;100953.11;1666113;84;21545;-54
2022/01/10 06:59:43;;;;;;;12.95;10.95;;;;;;;8.29;64.74;100957.88;1632692;87;21550;-54
2022/01/10 07:02:10;;;;;;;15.10;11.25;;;;;;;8.29;64.86;100961.77;1644701;85;21089;-54
2022/01/10 07:04:36;;;;;;;14.23;11.15;;;;;;;8.32;65.02;100968.24;1646117;86;21006;-54
2022/01/10 07:07:05;;;;;;;15.95;11.65;;;;;;;8.36;65.10;100973.82;1650665;86;21054;-54
2022/01/10 07:09:34;;;;;;;16.32;10.88;;;;;;;8.39;65.15;100972.05;1639882;86;21577;-55
2022/01/10 07:12:03;;;;;;;13.88;11.05;;;;;;;8.44;65.06;100973.31;1639194;86;21074;-54
2022/01/10 07:14:34;;;;;;;16.20;11.33;;;;;;;8.46;65.02;100976.75;1677182;84;21172;-54
2022/01/10 07:17:00;;;;;;;15.05;11.22;;;;;;;8.52;64.88;100972.80;1642822;86;21614;-54
2022/01/10 07:19:27;;;;;;;15.75;11.83;;;;;;;8.54;64.75;100976.23;1643635;86;21031;-55
2022/01/10 07:21:54;;;;;;;16.37;11.30;;;;;;;8.53;64.50;100970.64;1675856;84;21018;-55
2022/01/10 07:24:21;;;;;;;15.48;11.53;;;;;;;8.49;64.52;100981.92;1685873;85;21057;-54
2022/01/10 07:26:49;;;;;;;15.65;12.18;;;;;;;8.43;64.60;100978.09;1689183;83;21565;-54
2022/01/10 07:29:15;;;;;;;16.80;12.05;;;;;;;8.40;64.66;100981.56;1682030;83;21515;-54
2022/01/10 07:31:42;;;;;;;16.15;11.25;;;;;;;8.41;64.75;100979.84;1684270;84;21024;-54
2022/01/10 07:34:11;;;;;;;15.50;11.12;;;;;;;8.41;64.69;100982.44;1670678;85;21034;-54
2022/01/10 07:36:37;;;;;;;14.80;11.30;;;;;;;8.40;64.63;100981.99;1668747;84;21026;-55
2022/01/10 07:39:04;;;;;;;14.40;11.38;;;;;;;8.35;64.46;100981.16;1679143;85;21193;-55
2022/01/10 07:41:31;;;;;;;13.95;11.10;;;;;;;8.28;64.51;100983.41;1672362;85;21043;-55
2022/01/10 07:43:59;;;;;;;14.30;10.25;;;;;;;8.22;64.50;100989.02;1668095;84;21133;-55
2022/01/10 07:46:26;;;;;;;12.35;10.45;;;;;;;8.15;64.63;100982.19;1660216;84;21494;-55
2022/01/10 07:48:54;;;;;;;12.93;10.45;;;;;;;8.12;64.79;100978.30;1666571;85;21028;-55
2022/01/10 07:51:24;;;;;;;14.38;10.75;;;;;;;8.12;64.90;100974.42;1693738;83;20972;-55
2022/01/10 07:53:50;;;;;;;13.22;10.82;;;;;;;8.13;64.92;100973.99;1699896;83;21077;-55
2022/01/10 07:56:17;;;;;;;14.03;10.93;;;;;;;8.12;64.90;100970.53;1696220;83;21050;-54
2022/01/10 07:58:45;;;;;;;14.25;10.48;;;;;;;8.11;64.92;100972.72;1691601;83;21109;-54
2022/01/10 08:01:11;;;;;;;13.08;9.78;;;;;;;8.11;64.91;100974.02;1690599;83;20971;-54
2022/01/10 08:03:38;;;;;;;13.05;9.83;;;;;;;8.11;65.01;100976.60;1699665;83;21045;-54
2022/01/10 08:06:04;;;;;;;12.45;9.75;;;;;;;8.10;64.97;100968.39;1699142;83;21026;-55
2022/01/10 08:08:31;;;;;;;12.90;9.25;;;;;;;8.10;65.09;100974.00;1685090;83;21119;-54
2022/01/10 08:10:57;;;;;;;12.23;10.03;;;;;;;8.10;65.09;100974.86;1698194;83;21034;-54
2022/01/10 08:13:24;;;;;;;10.88;8.65;;;;;;;8.09;65.07;100982.23;1701132;82;21035;-55
2022/01/10 08:15:51;;;;;;;11.48;9.05;;;;;;;8.07;65.09;100987.87;1698750;83;21042;-55
2022/01/10 08:18:17;;;;;;;11.15;9.20;;;;;;;8.06;65.16;100986.13;1704512;83;21046;-55
2022/01/10 08:20:44;;;;;;;10.60;9.23;;;;;;;8.08;65.20;101000.36;1688517;82;21042;-55
2022/01/10 08:23:11;;;;;;;10.25;8.68;;;;;;;8.06;65.24;100996.50;1670163;84;21014;-55
2022/01/10 08:25:37;;;;;;;10.18;8.28;;;;;;;8.08;65.29;101002.53;1691163;84;21108;-55
2022/01/10 08:28:05;;;;;;;11.73;8.30;;;;;;;8.07;65.38;101006.01;1695308;83;21022;-55
2022/01/10 08:30:31;;;;;;;9.83;7.70;;;;;;;8.06;65.40;101004.27;1710613;83;21038;-56
2022/01/10 08:32:58;;;;;;;8.50;7.37;;;;;;;8.06;65.42;101000.38;1685992;83;21058;-55
2022/01/10 08:35:24;;;;;;;8.38;7.37;;;;;;;8.06;65.50;100999.09;1676284;83;21038;-55
2022/01/10 08:37:51;;;;;;;7.95;6.90;;;;;;;8.10;65.50;100998.62;1675646;84;21061;-54
2022/01/10 08:40:17;;;;;;;10.05;7.55;;;;;;;8.09;65.45;100999.08;1679564;83;21046;-54
2022/01/10 08:42:44;;;;;;;8.35;7.40;;;;;;;8.11;65.26;100997.77;1707161;83;21091;-54
2022/01/10 08:45:10;;;;;;;7.55;6.67;;;;;;;8.08;65.40;100994.75;1693713;83;21022;-54
2022/01/10 08:47:37;;;;;;;9.15;6.80;;;;;;;8.11;65.43;101000.36;1688629;83;21026;-55
2022/01/10 08:50:05;;;;;;;9.23;7.33;;;;;;;8.12;65.43;100999.04;1694164;82;21018;-55
2022/01/10 08:52:31;;;;;;;7.83;7.03;;;;;;;8.14;65.45;100997.30;1694396;83;21045;-54
2022/01/10 08:54:58;;;;;;;8.38;7.42;;;;;;;8.17;65.53;101002.47;1692136;83;21504;-55
2022/01/10 08:57:26;;;;;;;8.28;7.10;;;;;;;8.23;65.50;101003.72;1703957;82;21502;-55
2022/01/10 08:59:52;;;;;;;8.43;7.42;;;;;;;8.29;65.61;101003.25;1698889;83;21078;-54
2022/01/10 09:02:19;;;;;;;10.25;8.38;;;;;;;8.36;65.65;100997.16;1691354;83;21542;-55
2022/01/10 09:04:46;;;;;;;12.35;8.53;;;;;;;8.41;65.57;100991.51;1692208;83;21025;-55
2022/01/10 09:07:13;;;;;;;12.23;8.00;;;;;;;8.47;65.50;100995.34;1690062;83;21018;-55
2022/01/10 09:09:40;;;;;;;11.88;8.18;;;;;;;8.55;65.47;100992.23;1699223;83;21607;-54
2022/01/10 09:12:08;;;;;;;9.50;8.30;;;;;;;8.60;65.27;100990.00;1706326;83;21191;-54
2022/01/10 09:14:34;;;;;;;10.45;9.18;;;;;;;8.65;64.99;100986.08;1698427;83;21026;-55
2022/01/10 09:17:01;;;;;;;10.05;8.00;;;;;;;8.66;64.85;100989.08;1696381;83;21030;-55
2022/01/10 09:19:28;;;;;;;11.63;8.88;;;;;;;8.68;64.86;100989.91;1696536;83;21061;-55
2022/01/10 09:21:54;;;;;;;10.30;8.15;;;;;;;8.72;64.84;100990.30;1685343;84;21011;-54
2022/01/10 09:24:21;;;;;;;10.20;7.45;;;;;;;8.75;64.56;100991.58;1688104;83;21054;-54
2022/01/10 09:26:47;;;;;;;8.55;6.90;;;;;;;8.76;64.49;100997.18;1693326;82;21049;-54
2022/01/10 09:29:14;;;;;;;10.53;7.17;;;;;;;8.80;64.34;101004.05;1701742;83;20994;-55
2022/01/10 09:31:40;;;;;;;8.20;7.12;;;;;;;8.81;63.94;101007.09;1689588;83;21046;-55
2022/01/10 09:34:06;;;;;;;9.40;7.15;;;;;;;8.80;63.95;101010.54;1692033;83;21050;-56
2022/01/10 09:36:34;;;;;;;9.28;6.92;;;;;;;8.84;63.88;101014.86;1695446;83;21058;-54
2022/01/10 09:39:02;;;;;;;7.45;6.40;;;;;;;8.86;63.66;101018.30;1682990;83;21022;-53
2022/01/10 09:41:28;;;;;;;7.58;6.65;;;;;;;8.82;63.65;101019.20;1681538;83;21549;-53
2022/01/10 09:44:02;;;;;;;7.67;6.42;;;;;;;8.79;63.84;101020.52;1691870;83;21089;-53
2022/01/10 09:46:30;;;;;;;8.08;6.33;;;;;;;8.80;63.76;101028.70;1634709;86;21130;-53
2022/01/10 09:48:59;;;;;;;9.50;7.28;;;;;;;8.82;63.74;101019.20;1634396;86;21098;-53
2022/01/10 09:51:26;;;;;;;7.25;6.47;;;;;;;8.86;63.65;101015.23;1640309;86;21014;-53
2022/01/10 09:53:55;;;;;;;7.37;5.53;;;;;;;8.88;63.60;101023.03;1640820;86;21042;-53
2022/01/10 09:56:22;;;;;;;7.08;5.58;;;;;;;8.94;63.41;101021.66;1639514;86;21074;-53
2022/01/10 09:58:48;;;;;;;6.87;5.45;;;;;;;8.95;63.26;101025.95;1629125;86;21567;-53
2022/01/10 10:01:16;;;;;;;6.45;5.12;;;;;;;8.95;63.25;101031.15;1636425;86;21575;-53
2022/01/10 10:03:45;;;;;;;6.50;5.00;;;;;;;8.97;63.08;101033.29;1643348;86;21487;-54
2022/01/10 10:06:11;;;;;;;6.40;5.05;;;;;;;8.97;62.83;101034.59;1638698;86;21083;-53
2022/01/10 10:08:39;;;;;;;5.87;5.05;;;;;;;8.95;62.65;101033.75;1638118;86;21104;-53
2022/01/10 10:11:08;;;;;;;5.70;4.58;;;;;;;8.86;62.48;101036.45;1642412;86;21062;-53
2022/01/10 10:13:51;;;;;;;4.90;4.40;;;;;;;8.78;62.47;101030.02;1647943;86;21075;-53
2022/01/10 10:16:15;;;;;;;4.40;4.00;;;;;;;8.73;62.58;101033.55;1646359;86;21551;-53
2022/01/10 10:18:43;;;;;;;4.33;3.90;;;;;;;8.70;62.85;101030.54;1638281;86;20988;-53
2022/01/10 10:21:12;;;;;;;3.92;3.12;;;;;;;8.73;62.88;101033.55;1637725;86;21015;-53
2022/01/10 10:23:40;;;;;;;3.87;3.35;;;;;;;8.71;62.71;101026.22;1636004;86;21527;-53
2022/01/10 10:26:07;;;;;;;5.22;3.60;;;;;;;8.70;62.85;101027.08;1625772;86;21058;-53
2022/01/10 10:28:36;;;;;;;5.35;3.77;;;;;;;8.71;62.86;101034.00;1628129;85;21079;-53
2022/01/10 10:31:02;;;;;;;4.00;3.60;;;;;;;8.71;62.86;101031.41;1636864;85;21019;-53
2022/01/10 10:33:29;;;;;;;4.60;3.60;;;;;;;8.71;62.87;101028.81;1630691;86;21103;-53
2022/01/10 10:38:29;;;;;;;5.60;4.10;;;;;;;8.72;62.84;101031.38;1564499;89;21086;-53
2022/01/10 10:41:01;;;;;;;4.33;3.92;;;;;;;8.71;62.80;101032.70;1589435;89;21038;-53
2022/01/10 10:43:34;;;;;;;4.67;4.00;;;;;;;8.70;62.88;101030.54;1583080;89;21627;-53
2022/01/10 10:46:02;;;;;;;4.17;3.77;;;;;;;8.71;62.88;101033.57;1604916;89;21542;-52
2022/01/10 10:48:29;;;;;;;4.75;3.85;;;;;;;8.72;62.95;101029.22;1579124;89;21151;-53
2022/01/10 10:50:58;;;;;;;3.87;3.30;;;;;;;8.75;62.91;101031.80;1601811;89;21073;-53
2022/01/10 10:53:27;;;;;;;4.83;3.85;;;;;;;8.76;62.65;101034.80;1597025;89;21122;-52
2022/01/10 10:55:58;;;;;;;4.78;4.10;;;;;;;8.73;62.70;101032.25;1595991;89;21062;-53
2022/01/10 10:58:26;;;;;;;4.60;4.20;;;;;;;8.72;62.76;101037.00;1550519;91;21106;-53
2022/01/10 11:00:56;;;;;;;6.65;4.78;;;;;;;8.73;62.78;101042.63;1537885;92;21112;-54
2022/01/10 11:03:24;;;;;;;5.47;4.60;;;;;;;8.75;62.90;101046.07;1539394;91;21126;-54
2022/01/10 11:08:21;;;;;;;5.08;4.58;;;;;;;8.80;62.77;101054.65;1499313;95;21117;-53
2022/01/10 11:10:47;;;;;;;4.97;4.47;;;;;;;8.84;62.72;101058.97;1484786;95;21133;-53
2022/01/10 11:13:14;;;;;;;4.70;4.22;;;;;;;8.88;62.70;101056.30;1497887;94;21204;-53
2022/01/10 11:15:41;;;;;;;6.45;4.83;;;;;;;8.92;62.49;101061.05;1491991;94;21166;-55
2022/01/10 11:18:08;;;;;;;5.70;4.20;;;;;;;8.92;62.30;101061.88;1484300;94;21090;-53
2022/01/10 11:20:45;;;;;;;6.40;4.35;;;;;;;8.99;62.25;101067.87;1497570;95;21223;-53
2022/01/10 11:23:12;;;;;;;4.78;4.35;;;;;;;9.02;62.24;101063.96;1449231;97;21095;-53
2022/01/10 11:25:40;;;;;;;5.30;4.80;;;;;;;9.03;62.25;101057.87;1450162;98;21077;-53
2022/01/10 11:28:23;;;;;;;5.30;4.80;;;;;;;9.04;62.23;101063.51;1447819;98;21643;-54
2022/01/10 11:31:04;;;;;;;5.35;4.85;;;;;;;9.08;62.16;101066.49;1460744;97;21154;-53
2022/01/10 11:33:36;;;;;;;5.28;4.78;;;;;;;9.10;62.02;101064.73;1412490;101;21224;-53
2022/01/10 11:36:09;;;;;;;6.00;5.28;;;;;;;9.10;61.78;101069.93;1419630;100;21188;-53
2022/01/10 11:38:44;;;;;;;5.37;4.87;;;;;;;9.07;61.62;101072.55;1432637;100;21636;-53
2022/01/10 11:41:20;;;;;;;4.70;4.20;;;;;;;9.04;61.59;101070.00;1393055;102;21202;-53
2022/01/10 11:44:08;;;;;;;4.75;4.35;;;;;;;9.01;61.64;101078.67;1465568;97;21144;-53
2022/01/10 11:46:51;;;;;;;5.12;4.00;;;;;;;8.99;61.77;101075.66;1466211;98;21136;-53
2022/01/10 11:49:21;;;;;;;4.58;3.95;;;;;;;8.99;61.84;101076.95;1465034;98;21570;-53
2022/01/10 11:51:56;;;;;;;4.03;3.67;;;;;;;8.98;61.79;101072.66;1464386;98;21611;-53
2022/01/10 11:54:37;;;;;;;4.70;4.30;;;;;;;8.96;61.76;101073.11;1471320;95;21172;-53
2022/01/10 11:57:06;;;;;;;4.92;4.42;;;;;;;8.93;61.83;101074.42;1491433;93;21168;-53
2022/01/10 11:59:37;;;;;;;4.30;3.90;;;;;;;8.91;61.94;101073.58;1509048;93;21658;-53
2022/01/10 12:02:10;;;;;;;4.10;3.70;;;;;;;8.92;61.89;101068.83;1539516;92;21089;-53
2022/01/10 12:04:38;;;;;;;5.08;3.72;;;;;;;8.89;61.83;101070.14;1541242;90;21084;-53
2022/01/10 12:07:08;;;;;;;3.55;3.25;;;;;;;8.88;61.77;101073.63;1592809;88;21097;-53
2022/01/10 12:09:35;;;;;;;4.00;3.00;;;;;;;8.84;62.04;101070.18;1594769;88;21518;-54
2022/01/10 12:12:04;;;;;;;3.40;3.10;;;;;;;8.88;62.02;101073.63;1662295;85;21066;-53
2022/01/10 12:14:31;;;;;;;3.27;2.98;;;;;;;8.90;61.90;101075.30;1632128;86;21138;-53
2022/01/10 12:16:59;;;;;;;4.20;3.80;;;;;;;8.91;61.87;101076.17;1633257;86;21543;-55
2022/01/10 12:19:25;;;;;;;5.75;4.40;;;;;;;8.91;61.83;101081.37;1646476;84;21466;-53
2022/01/10 12:21:52;;;;;;;4.37;3.98;;;;;;;8.87;61.72;101087.03;1673090;84;21613;-53
2022/01/10 12:24:20;;;;;;;4.58;3.90;;;;;;;8.84;61.88;101091.40;1695434;83;21012;-53
2022/01/10 12:26:47;;;;;;;5.22;4.05;;;;;;;8.83;62.03;101094.86;1695587;82;21082;-53
2022/01/10 12:29:14;;;;;;;6.12;5.53;;;;;;;8.81;61.94;101094.87;1693627;83;21105;-54
2022/01/10 12:31:43;;;;;;;5.72;5.20;;;;;;;8.80;61.98;101097.46;1679165;84;21659;-53
2022/01/10 12:34:11;;;;;;;7.92;6.30;;;;;;;8.81;62.07;101101.80;1677482;83;21089;-53
2022/01/10 12:36:38;;;;;;;6.28;5.35;;;;;;;8.81;61.91;101101.36;1695591;83;21010;-53
2022/01/10 12:41:43;;;;;;;4.90;4.45;;;;;;;8.80;61.90;101106.55;1616463;87;21037;-53
2022/01/10 12:44:09;;;;;;;8.25;5.87;;;;;;;8.81;61.85;101110.88;1634222;87;21108;-53
2022/01/10 12:46:36;;;;;;;8.40;7.35;;;;;;;8.79;61.72;101117.81;1613900;87;21041;-53
2022/01/10 12:49:08;;;;;;;8.55;7.10;;;;;;;8.75;61.76;101121.31;1616523;87;21105;-53
2022/01/10 12:51:42;;;;;;;9.25;7.70;;;;;;;8.75;61.79;101126.50;1608306;88;21487;-54
2022/01/10 12:54:21;;;;;;;7.25;6.45;;;;;;;8.74;61.89;101129.95;1612934;87;21585;-54
2022/01/10 12:56:48;;;;;;;7.12;6.40;;;;;;;8.74;62.03;101128.22;1565471;89;21094;-53
2022/01/10 12:59:18;;;;;;;6.05;5.45;;;;;;;8.78;62.17;101129.05;1549364;89;21074;-53
2022/01/10 13:01:45;;;;;;;9.45;7.28;;;;;;;8.79;61.94;101126.89;1567685;90;21495;-53
2022/01/10 13:04:12;;;;;;;9.58;7.58;;;;;;;8.78;61.79;101129.05;1551111;90;21674;-54